sensor_id;sensor_type;location;lat;lon;timestamp;noise_LAeq;noise_LA_min;noise_LA_max;noise_LA01;noise_LA95
60503;Laerm;51448;51.660;5.824;2022-07-21T00:00:56;40.41;28.27;54.16;;
60503;Laerm;51448;51.660;5.824;2022-07-21T00:03:23;40.58;28.13;53.83;;
60503;Laerm;51448;51.660;5.824;2022-07-21T00:05:51;41.04;28.14;55.37;;
60503;Laerm;51448;51.660;5.824;2022-07-21T00:08:19;41.33;28.16;54.70;;
60503;Laerm;51448;51.660;5.824;2022-07-21T00:10:47;40.56;28.58;55.91;;
60503;Laerm;51448;51.660;5.824;2022-07-21T00:13:14;40.67;28.64;57.19;;
60503;Laerm;51448;51.660;5.824;2022-07-21T00:15:42;41.88;28.74;59.54;;
60503;Laerm;51448;51.660;5.824;2022-07-21T00:18:10;41.92;28.55;54.62;;
60503;Laerm;51448;51.660;5.824;2022-07-21T00:20:38;42.97;28.58;55.02;;
60503;Laerm;51448;51.660;5.824;2022-07-21T00:23:06;40.73;28.79;53.81;;
60503;Laerm;51448;51.660;5.824;2022-07-21T00:25:33;41.03;28.61;66.22;;
60503;Laerm;51448;51.660;5.824;2022-07-21T00:28:04;40.59;28.85;53.81;;
60503;Laerm;51448;51.660;5.824;2022-07-21T00:30:33;40.70;28.64;54.24;;
60503;Laerm;51448;51.660;5.824;2022-07-21T00:33:01;41.16;28.37;54.47;;
60503;Laerm;51448;51.660;5.824;2022-07-21T00:35:29;44.18;28.46;55.45;;
60503;Laerm;51448;51.660;5.824;2022-07-21T00:37:56;45.24;28.40;58.11;;
60503;Laerm;51448;51.660;5.824;2022-07-21T00:40:24;41.94;28.92;54.96;;
60503;Laerm;51448;51.660;5.824;2022-07-21T00:42:53;41.34;28.72;54.59;;
60503;Laerm;51448;51.660;5.824;2022-07-21T00:45:20;41.88;28.59;55.21;;
60503;Laerm;51448;51.660;5.824;2022-07-21T00:47:48;42.38;28.68;55.25;;
60503;Laerm;51448;51.660;5.824;2022-07-21T00:50:19;42.42;28.70;56.30;;
60503;Laerm;51448;51.660;5.824;2022-07-21T00:52:48;40.54;28.62;54.44;;
60503;Laerm;51448;51.660;5.824;2022-07-21T00:55:20;42.04;28.48;54.97;;
60503;Laerm;51448;51.660;5.824;2022-07-21T00:57:50;41.06;28.25;54.65;;
60503;Laerm;51448;51.660;5.824;2022-07-21T01:00:26;40.96;28.35;54.42;;
60503;Laerm;51448;51.660;5.824;2022-07-21T01:02:58;41.58;28.39;55.13;;
60503;Laerm;51448;51.660;5.824;2022-07-21T01:05:25;40.91;28.34;54.49;;
60503;Laerm;51448;51.660;5.824;2022-07-21T01:07:56;41.00;28.48;58.75;;
60503;Laerm;51448;51.660;5.824;2022-07-21T01:10:31;44.89;28.80;59.19;;
60503;Laerm;51448;51.660;5.824;2022-07-21T01:13:00;40.38;28.55;54.51;;
60503;Laerm;51448;51.660;5.824;2022-07-21T01:15:29;42.48;28.82;62.45;;
60503;Laerm;51448;51.660;5.824;2022-07-21T01:17:56;42.08;29.08;55.13;;
60503;Laerm;51448;51.660;5.824;2022-07-21T01:20:26;42.68;28.62;55.46;;
60503;Laerm;51448;51.660;5.824;2022-07-21T01:22:58;41.19;28.62;54.64;;
60503;Laerm;51448;51.660;5.824;2022-07-21T01:25:26;42.25;28.50;55.24;;
60503;Laerm;51448;51.660;5.824;2022-07-21T01:27:54;40.59;28.33;54.45;;
60503;Laerm;51448;51.660;5.824;2022-07-21T01:30:22;40.70;28.41;54.21;;
60503;Laerm;51448;51.660;5.824;2022-07-21T01:32:50;40.85;28.21;54.27;;
60503;Laerm;51448;51.660;5.824;2022-07-21T01:35:19;42.15;28.82;55.13;;
60503;Laerm;51448;51.660;5.824;2022-07-21T01:37:47;41.24;28.52;54.54;;
60503;Laerm;51448;51.660;5.824;2022-07-21T01:40:17;42.51;28.49;54.24;;
60503;Laerm;51448;51.660;5.824;2022-07-21T01:43:04;40.52;28.48;54.84;;
60503;Laerm;51448;51.660;5.824;2022-07-21T01:45:40;40.98;28.61;54.29;;
60503;Laerm;51448;51.660;5.824;2022-07-21T01:48:09;41.28;28.34;54.58;;
60503;Laerm;51448;51.660;5.824;2022-07-21T01:50:37;41.04;28.21;54.57;;
60503;Laerm;51448;51.660;5.824;2022-07-21T01:53:05;41.44;28.26;54.59;;
60503;Laerm;51448;51.660;5.824;2022-07-21T01:55:32;41.61;28.32;54.61;;
60503;Laerm;51448;51.660;5.824;2022-07-21T01:58:01;42.09;28.03;55.15;;
60503;Laerm;51448;51.660;5.824;2022-07-21T02:00:29;43.83;28.34;59.46;;
60503;Laerm;51448;51.660;5.824;2022-07-21T02:02:57;45.17;28.34;58.75;;
60503;Laerm;51448;51.660;5.824;2022-07-21T02:05:24;41.19;28.22;55.01;;
60503;Laerm;51448;51.660;5.824;2022-07-21T02:07:53;42.03;28.83;54.60;;
60503;Laerm;51448;51.660;5.824;2022-07-21T02:10:20;43.04;28.85;54.98;;
60503;Laerm;51448;51.660;5.824;2022-07-21T02:12:48;43.49;28.35;58.32;;
60503;Laerm;51448;51.660;5.824;2022-07-21T02:15:16;42.63;28.65;56.59;;
60503;Laerm;51448;51.660;5.824;2022-07-21T02:17:44;43.80;28.75;55.01;;
60503;Laerm;51448;51.660;5.824;2022-07-21T02:20:11;41.42;28.75;54.83;;
60503;Laerm;51448;51.660;5.824;2022-07-21T02:22:39;42.82;28.49;55.51;;
60503;Laerm;51448;51.660;5.824;2022-07-21T02:25:07;42.91;28.69;55.84;;
60503;Laerm;51448;51.660;5.824;2022-07-21T02:27:35;41.36;28.16;54.86;;
60503;Laerm;51448;51.660;5.824;2022-07-21T02:30:03;42.79;28.51;61.69;;
60503;Laerm;51448;51.660;5.824;2022-07-21T02:32:31;42.48;28.82;54.82;;
60503;Laerm;51448;51.660;5.824;2022-07-21T02:34:59;42.54;28.71;55.57;;
60503;Laerm;51448;51.660;5.824;2022-07-21T02:37:28;41.05;28.59;54.46;;
60503;Laerm;51448;51.660;5.824;2022-07-21T02:39:55;40.79;28.42;54.53;;
60503;Laerm;51448;51.660;5.824;2022-07-21T02:42:23;40.74;28.51;54.02;;
60503;Laerm;51448;51.660;5.824;2022-07-21T02:44:51;41.73;28.71;56.11;;
60503;Laerm;51448;51.660;5.824;2022-07-21T02:47:19;43.53;28.77;59.55;;
60503;Laerm;51448;51.660;5.824;2022-07-21T02:49:46;45.02;29.49;54.60;;
60503;Laerm;51448;51.660;5.824;2022-07-21T02:52:15;41.02;29.27;54.26;;
60503;Laerm;51448;51.660;5.824;2022-07-21T02:54:43;44.12;29.68;56.39;;
60503;Laerm;51448;51.660;5.824;2022-07-21T02:57:11;41.88;29.12;57.80;;
60503;Laerm;51448;51.660;5.824;2022-07-21T02:59:41;44.37;28.96;57.90;;
60503;Laerm;51448;51.660;5.824;2022-07-21T03:02:08;44.27;28.95;59.91;;
60503;Laerm;51448;51.660;5.824;2022-07-21T03:04:36;41.24;28.92;55.66;;
60503;Laerm;51448;51.660;5.824;2022-07-21T03:07:03;42.67;29.01;56.41;;
60503;Laerm;51448;51.660;5.824;2022-07-21T03:09:31;40.94;29.03;54.97;;
60503;Laerm;51448;51.660;5.824;2022-07-21T03:11:58;45.47;29.32;59.41;;
60503;Laerm;51448;51.660;5.824;2022-07-21T03:14:26;46.55;28.98;71.62;;
60503;Laerm;51448;51.660;5.824;2022-07-21T03:16:54;41.64;28.76;55.01;;
60503;Laerm;51448;51.660;5.824;2022-07-21T03:19:21;40.80;29.19;54.45;;
60503;Laerm;51448;51.660;5.824;2022-07-21T03:21:49;44.80;29.88;56.46;;
60503;Laerm;51448;51.660;5.824;2022-07-21T03:24:16;57.92;29.78;78.63;;
60503;Laerm;51448;51.660;5.824;2022-07-21T03:26:45;42.15;29.55;56.31;;
60503;Laerm;51448;51.660;5.824;2022-07-21T03:29:13;43.39;29.65;58.19;;
60503;Laerm;51448;51.660;5.824;2022-07-21T03:31:40;41.40;29.28;54.86;;
60503;Laerm;51448;51.660;5.824;2022-07-21T03:34:08;41.45;29.55;55.76;;
60503;Laerm;51448;51.660;5.824;2022-07-21T03:36:35;45.65;30.18;62.65;;
60503;Laerm;51448;51.660;5.824;2022-07-21T03:39:03;45.11;29.95;69.73;;
60503;Laerm;51448;51.660;5.824;2022-07-21T03:41:31;43.92;30.70;61.08;;
60503;Laerm;51448;51.660;5.824;2022-07-21T03:43:58;42.58;29.50;55.24;;
60503;Laerm;51448;51.660;5.824;2022-07-21T03:46:26;46.56;30.50;65.57;;
60503;Laerm;51448;51.660;5.824;2022-07-21T03:48:53;44.14;29.80;55.34;;
60503;Laerm;51448;51.660;5.824;2022-07-21T03:51:21;44.20;30.08;54.72;;
60503;Laerm;51448;51.660;5.824;2022-07-21T03:53:49;43.00;30.04;59.47;;
60503;Laerm;51448;51.660;5.824;2022-07-21T03:56:17;44.23;30.26;59.73;;
60503;Laerm;51448;51.660;5.824;2022-07-21T03:58:44;44.92;30.52;59.20;;
60503;Laerm;51448;51.660;5.824;2022-07-21T04:01:12;43.70;30.13;55.02;;
60503;Laerm;51448;51.660;5.824;2022-07-21T04:03:39;44.89;29.74;62.72;;
60503;Laerm;51448;51.660;5.824;2022-07-21T04:06:07;46.80;30.59;58.80;;
60503;Laerm;51448;51.660;5.824;2022-07-21T04:08:38;43.61;30.78;55.22;;
60503;Laerm;51448;51.660;5.824;2022-07-21T04:11:05;47.77;31.06;70.97;;
60503;Laerm;51448;51.660;5.824;2022-07-21T04:13:33;47.55;31.93;64.71;;
60503;Laerm;51448;51.660;5.824;2022-07-21T04:16:00;48.11;30.97;68.96;;
60503;Laerm;51448;51.660;5.824;2022-07-21T04:18:28;44.94;30.94;62.25;;
60503;Laerm;51448;51.660;5.824;2022-07-21T04:20:55;42.40;30.37;64.44;;
60503;Laerm;51448;51.660;5.824;2022-07-21T04:23:23;46.61;30.96;63.09;;
60503;Laerm;51448;51.660;5.824;2022-07-21T04:25:51;46.52;31.36;58.73;;
60503;Laerm;51448;51.660;5.824;2022-07-21T04:28:18;47.40;31.88;57.62;;
60503;Laerm;51448;51.660;5.824;2022-07-21T04:30:47;49.55;30.97;75.92;;
60503;Laerm;51448;51.660;5.824;2022-07-21T04:33:15;47.55;30.88;59.73;;
60503;Laerm;51448;51.660;5.824;2022-07-21T04:35:43;45.42;31.68;57.29;;
60503;Laerm;51448;51.660;5.824;2022-07-21T04:38:10;43.42;31.36;55.37;;
60503;Laerm;51448;51.660;5.824;2022-07-21T04:40:38;44.79;31.43;55.36;;
60503;Laerm;51448;51.660;5.824;2022-07-21T04:43:06;46.32;32.13;56.72;;
60503;Laerm;51448;51.660;5.824;2022-07-21T04:45:34;46.88;30.90;60.75;;
60503;Laerm;51448;51.660;5.824;2022-07-21T04:48:03;47.34;32.06;57.70;;
60503;Laerm;51448;51.660;5.824;2022-07-21T04:50:31;47.55;31.61;58.70;;
60503;Laerm;51448;51.660;5.824;2022-07-21T04:52:59;47.91;32.48;58.48;;
60503;Laerm;51448;51.660;5.824;2022-07-21T04:55:28;47.95;32.10;59.57;;
60503;Laerm;51448;51.660;5.824;2022-07-21T04:57:56;45.25;31.46;55.50;;
60503;Laerm;51448;51.660;5.824;2022-07-21T05:00:26;50.62;33.51;63.73;;
60503;Laerm;51448;51.660;5.824;2022-07-21T05:02:54;45.66;31.70;57.96;;
60503;Laerm;51448;51.660;5.824;2022-07-21T05:05:22;45.68;31.45;64.56;;
60503;Laerm;51448;51.660;5.824;2022-07-21T05:07:50;51.05;32.52;66.34;;
60503;Laerm;51448;51.660;5.824;2022-07-21T05:10:18;48.05;31.48;57.47;;
60503;Laerm;51448;51.660;5.824;2022-07-21T05:12:46;48.05;35.82;60.25;;
60503;Laerm;51448;51.660;5.824;2022-07-21T05:15:13;46.76;31.90;57.82;;
60503;Laerm;51448;51.660;5.824;2022-07-21T05:17:41;47.34;32.14;60.66;;
60503;Laerm;51448;51.660;5.824;2022-07-21T05:20:10;48.76;31.96;62.76;;
60503;Laerm;51448;51.660;5.824;2022-07-21T05:22:39;48.12;33.39;60.31;;
60503;Laerm;51448;51.660;5.824;2022-07-21T05:25:07;48.32;33.95;59.44;;
60503;Laerm;51448;51.660;5.824;2022-07-21T05:27:35;47.57;33.72;65.08;;
60503;Laerm;51448;51.660;5.824;2022-07-21T05:30:04;46.97;34.08;62.91;;
60503;Laerm;51448;51.660;5.824;2022-07-21T05:32:32;50.64;33.83;64.63;;
60503;Laerm;51448;51.660;5.824;2022-07-21T05:34:59;45.51;32.94;57.54;;
60503;Laerm;51448;51.660;5.824;2022-07-21T05:37:27;48.93;33.60;58.46;;
60503;Laerm;51448;51.660;5.824;2022-07-21T05:39:55;52.16;34.33;76.58;;
60503;Laerm;51448;51.660;5.824;2022-07-21T05:42:22;47.49;33.03;66.00;;
60503;Laerm;51448;51.660;5.824;2022-07-21T05:44:50;49.64;35.33;72.15;;
60503;Laerm;51448;51.660;5.824;2022-07-21T05:47:17;49.85;34.41;62.74;;
60503;Laerm;51448;51.660;5.824;2022-07-21T05:49:45;47.51;33.73;59.48;;
60503;Laerm;51448;51.660;5.824;2022-07-21T05:52:12;50.38;34.19;64.22;;
60503;Laerm;51448;51.660;5.824;2022-07-21T05:54:40;49.09;35.65;60.94;;
60503;Laerm;51448;51.660;5.824;2022-07-21T05:57:07;45.56;34.71;57.00;;
60503;Laerm;51448;51.660;5.824;2022-07-21T05:59:35;48.45;34.20;70.50;;
60503;Laerm;51448;51.660;5.824;2022-07-21T06:02:02;47.51;35.01;69.58;;
60503;Laerm;51448;51.660;5.824;2022-07-21T06:04:30;51.33;37.00;71.70;;
60503;Laerm;51448;51.660;5.824;2022-07-21T06:06:58;54.84;35.27;79.94;;
60503;Laerm;51448;51.660;5.824;2022-07-21T06:09:26;46.54;34.85;71.90;;
60503;Laerm;51448;51.660;5.824;2022-07-21T06:11:53;47.18;34.37;58.57;;
60503;Laerm;51448;51.660;5.824;2022-07-21T06:14:21;47.75;34.74;68.46;;
60503;Laerm;51448;51.660;5.824;2022-07-21T06:16:49;50.71;34.72;68.81;;
60503;Laerm;51448;51.660;5.824;2022-07-21T06:19:17;51.59;34.79;72.65;;
60503;Laerm;51448;51.660;5.824;2022-07-21T06:21:46;48.18;34.38;57.96;;
60503;Laerm;51448;51.660;5.824;2022-07-21T06:24:15;45.59;33.48;59.37;;
60503;Laerm;51448;51.660;5.824;2022-07-21T06:26:42;45.68;34.83;66.97;;
60503;Laerm;51448;51.660;5.824;2022-07-21T06:29:12;44.97;34.00;56.23;;
60503;Laerm;51448;51.660;5.824;2022-07-21T06:31:39;47.38;34.80;57.25;;
60503;Laerm;51448;51.660;5.824;2022-07-21T06:34:07;47.71;35.21;58.60;;
60503;Laerm;51448;51.660;5.824;2022-07-21T06:36:35;45.57;35.21;55.54;;
60503;Laerm;51448;51.660;5.824;2022-07-21T06:39:02;45.74;34.45;55.86;;
60503;Laerm;51448;51.660;5.824;2022-07-21T06:41:30;48.80;34.20;73.91;;
60503;Laerm;51448;51.660;5.824;2022-07-21T06:43:58;49.93;33.18;69.12;;
60503;Laerm;51448;51.660;5.824;2022-07-21T06:46:25;52.20;35.10;72.49;;
60503;Laerm;51448;51.660;5.824;2022-07-21T06:48:53;44.66;34.12;55.26;;
60503;Laerm;51448;51.660;5.824;2022-07-21T06:51:21;46.52;35.54;61.13;;
60503;Laerm;51448;51.660;5.824;2022-07-21T06:53:48;45.50;34.80;57.31;;
60503;Laerm;51448;51.660;5.824;2022-07-21T06:56:18;47.14;34.26;66.33;;
60503;Laerm;51448;51.660;5.824;2022-07-21T06:58:46;46.54;34.65;57.04;;
60503;Laerm;51448;51.660;5.824;2022-07-21T07:01:17;45.30;34.82;57.67;;
60503;Laerm;51448;51.660;5.824;2022-07-21T07:03:46;46.14;33.63;64.10;;
60503;Laerm;51448;51.660;5.824;2022-07-21T07:06:14;47.47;33.56;66.61;;
60503;Laerm;51448;51.660;5.824;2022-07-21T07:08:42;45.38;33.52;71.45;;
60503;Laerm;51448;51.660;5.824;2022-07-21T07:11:12;48.99;33.90;64.99;;
60503;Laerm;51448;51.660;5.824;2022-07-21T07:13:40;46.25;34.20;56.52;;
60503;Laerm;51448;51.660;5.824;2022-07-21T07:16:27;45.36;32.54;57.36;;
60503;Laerm;51448;51.660;5.824;2022-07-21T07:18:58;45.08;33.01;56.34;;
60503;Laerm;51448;51.660;5.824;2022-07-21T07:21:26;43.68;34.14;57.37;;
60503;Laerm;51448;51.660;5.824;2022-07-21T07:23:54;45.74;32.96;65.71;;
60503;Laerm;51448;51.660;5.824;2022-07-21T07:26:23;50.48;32.56;70.42;;
60503;Laerm;51448;51.660;5.824;2022-07-21T07:28:50;45.64;34.02;57.58;;
60503;Laerm;51448;51.660;5.824;2022-07-21T07:31:18;44.75;33.27;57.06;;
60503;Laerm;51448;51.660;5.824;2022-07-21T07:33:45;43.33;31.89;54.57;;
60503;Laerm;51448;51.660;5.824;2022-07-21T07:36:13;52.56;33.12;76.27;;
60503;Laerm;51448;51.660;5.824;2022-07-21T07:38:40;46.81;34.68;58.46;;
60503;Laerm;51448;51.660;5.824;2022-07-21T07:41:08;50.37;34.77;75.05;;
60503;Laerm;51448;51.660;5.824;2022-07-21T07:43:36;50.80;33.40;72.27;;
60503;Laerm;51448;51.660;5.824;2022-07-21T07:46:03;52.77;34.75;71.55;;
60503;Laerm;51448;51.660;5.824;2022-07-21T07:48:33;49.17;34.85;62.96;;
60503;Laerm;51448;51.660;5.824;2022-07-21T07:51:02;45.91;35.61;57.34;;
60503;Laerm;51448;51.660;5.824;2022-07-21T07:53:30;62.38;35.31;90.59;;
60503;Laerm;51448;51.660;5.824;2022-07-21T07:55:59;51.78;36.82;72.73;;
60503;Laerm;51448;51.660;5.824;2022-07-21T07:58:27;43.43;35.42;53.66;;
60503;Laerm;51448;51.660;5.824;2022-07-21T08:00:54;43.91;33.40;54.99;;
60503;Laerm;51448;51.660;5.824;2022-07-21T08:03:25;46.78;34.04;58.24;;
60503;Laerm;51448;51.660;5.824;2022-07-21T08:05:55;50.33;32.98;60.16;;
60503;Laerm;51448;51.660;5.824;2022-07-21T08:08:23;45.49;34.05;56.10;;
60503;Laerm;51448;51.660;5.824;2022-07-21T08:10:51;56.78;34.94;85.28;;
60503;Laerm;51448;51.660;5.824;2022-07-21T08:13:18;45.38;34.31;65.30;;
60503;Laerm;51448;51.660;5.824;2022-07-21T08:15:47;44.00;33.00;56.56;;
60503;Laerm;51448;51.660;5.824;2022-07-21T08:18:17;43.71;31.25;56.13;;
60503;Laerm;51448;51.660;5.824;2022-07-21T08:20:46;55.22;33.41;72.19;;
60503;Laerm;51448;51.660;5.824;2022-07-21T08:23:16;58.67;34.28;75.88;;
60503;Laerm;51448;51.660;5.824;2022-07-21T08:25:44;62.12;38.24;79.94;;
60503;Laerm;51448;51.660;5.824;2022-07-21T08:28:12;71.41;51.02;89.40;;
60503;Laerm;51448;51.660;5.824;2022-07-21T08:30:40;65.22;39.93;83.24;;
60503;Laerm;51448;51.660;5.824;2022-07-21T08:33:08;58.83;34.53;80.12;;
60503;Laerm;51448;51.660;5.824;2022-07-21T08:35:35;50.47;33.43;68.03;;
60503;Laerm;51448;51.660;5.824;2022-07-21T08:38:07;49.53;33.99;68.24;;
60503;Laerm;51448;51.660;5.824;2022-07-21T08:40:42;54.26;33.08;72.62;;
60503;Laerm;51448;51.660;5.824;2022-07-21T08:43:10;62.13;33.71;77.96;;
60503;Laerm;51448;51.660;5.824;2022-07-21T08:45:42;54.90;35.16;74.01;;
60503;Laerm;51448;51.660;5.824;2022-07-21T08:48:10;48.83;34.71;70.06;;
60503;Laerm;51448;51.660;5.824;2022-07-21T08:50:39;47.60;37.16;68.23;;
60503;Laerm;51448;51.660;5.824;2022-07-21T08:53:07;63.67;39.33;81.77;;
60503;Laerm;51448;51.660;5.824;2022-07-21T08:55:37;60.83;39.82;77.07;;
60503;Laerm;51448;51.660;5.824;2022-07-21T08:58:10;70.43;39.93;84.04;;
60503;Laerm;51448;51.660;5.824;2022-07-21T09:00:43;59.99;42.13;74.78;;
60503;Laerm;51448;51.660;5.824;2022-07-21T09:03:17;53.82;43.36;65.74;;
60503;Laerm;51448;51.660;5.824;2022-07-21T09:06:12;59.61;52.41;69.63;;
60503;Laerm;51448;51.660;5.824;2022-07-21T09:08:46;54.97;47.74;63.47;;
60503;Laerm;51448;51.660;5.824;2022-07-21T09:11:20;56.45;49.65;68.94;;
60503;Laerm;51448;51.660;5.824;2022-07-21T09:14:12;57.45;52.05;78.67;;
60503;Laerm;51448;51.660;5.824;2022-07-21T09:16:41;56.31;49.72;65.63;;
60503;Laerm;51448;51.660;5.824;2022-07-21T09:19:24;60.21;55.35;67.73;;
60503;Laerm;51448;51.660;5.824;2022-07-21T09:21:55;59.29;54.03;68.67;;
60503;Laerm;51448;51.660;5.824;2022-07-21T09:24:27;59.35;53.84;70.90;;
60503;Laerm;51448;51.660;5.824;2022-07-21T09:29:46;59.12;53.75;68.10;;
60503;Laerm;51448;51.660;5.824;2022-07-21T09:32:20;61.01;56.76;69.54;;
60503;Laerm;51448;51.660;5.824;2022-07-21T09:34:52;58.32;54.36;72.03;;
60503;Laerm;51448;51.660;5.824;2022-07-21T09:37:22;58.40;51.68;68.69;;
60503;Laerm;51448;51.660;5.824;2022-07-21T09:40:00;59.84;52.97;67.46;;
60503;Laerm;51448;51.660;5.824;2022-07-21T09:42:49;63.22;56.00;70.83;;
60503;Laerm;51448;51.660;5.824;2022-07-21T09:45:18;61.32;56.55;70.36;;
60503;Laerm;51448;51.660;5.824;2022-07-21T09:47:46;59.98;55.68;67.77;;
60503;Laerm;51448;51.660;5.824;2022-07-21T09:50:16;56.87;51.50;69.09;;
60503;Laerm;51448;51.660;5.824;2022-07-21T09:52:54;54.52;46.31;65.48;;
60503;Laerm;51448;51.660;5.824;2022-07-21T09:55:23;51.84;45.29;66.89;;
60503;Laerm;51448;51.660;5.824;2022-07-21T09:57:51;55.10;47.16;67.24;;
60503;Laerm;51448;51.660;5.824;2022-07-21T10:00:19;56.55;50.90;79.70;;
60503;Laerm;51448;51.660;5.824;2022-07-21T10:02:48;52.92;45.96;66.98;;
60503;Laerm;51448;51.660;5.824;2022-07-21T10:05:20;53.40;46.86;64.01;;
60503;Laerm;51448;51.660;5.824;2022-07-21T10:08:00;54.04;48.94;64.41;;
60503;Laerm;51448;51.660;5.824;2022-07-21T10:10:30;52.15;46.04;61.73;;
60503;Laerm;51448;51.660;5.824;2022-07-21T10:13:19;53.00;45.50;66.79;;
60503;Laerm;51448;51.660;5.824;2022-07-21T10:15:47;51.39;44.70;62.58;;
60503;Laerm;51448;51.660;5.824;2022-07-21T10:18:19;54.07;46.37;69.85;;
60503;Laerm;51448;51.660;5.824;2022-07-21T10:21:41;55.96;47.30;64.11;;
60503;Laerm;51448;51.660;5.824;2022-07-21T10:24:12;54.80;50.08;66.10;;
60503;Laerm;51448;51.660;5.824;2022-07-21T10:27:12;56.69;51.01;71.55;;
60503;Laerm;51448;51.660;5.824;2022-07-21T10:32:37;60.99;55.97;73.41;;
60503;Laerm;51448;51.660;5.824;2022-07-21T10:35:30;62.00;55.36;75.32;;
60503;Laerm;51448;51.660;5.824;2022-07-21T10:38:01;60.47;54.91;70.47;;
60503;Laerm;51448;51.660;5.824;2022-07-21T10:40:33;60.01;54.42;68.62;;
60503;Laerm;51448;51.660;5.824;2022-07-21T10:45:35;56.92;50.83;65.18;;
60503;Laerm;51448;51.660;5.824;2022-07-21T10:48:06;55.76;49.33;66.41;;
60503;Laerm;51448;51.660;5.824;2022-07-21T10:50:40;54.55;47.82;64.97;;
60503;Laerm;51448;51.660;5.824;2022-07-21T10:53:16;56.71;50.60;65.63;;
60503;Laerm;51448;51.660;5.824;2022-07-21T10:55:55;58.45;53.64;70.30;;
60503;Laerm;51448;51.660;5.824;2022-07-21T10:58:25;57.96;50.43;67.59;;
60503;Laerm;51448;51.660;5.824;2022-07-21T11:04:11;56.53;49.11;64.12;;
60503;Laerm;51448;51.660;5.824;2022-07-21T11:06:40;56.20;50.74;66.69;;
60503;Laerm;51448;51.660;5.824;2022-07-21T11:09:17;53.87;49.54;65.84;;
60503;Laerm;51448;51.660;5.824;2022-07-21T11:14:18;56.43;49.29;69.02;;
60503;Laerm;51448;51.660;5.824;2022-07-21T11:19:47;57.78;52.95;69.01;;
60503;Laerm;51448;51.660;5.824;2022-07-21T11:22:24;57.40;51.43;67.18;;
60503;Laerm;51448;51.660;5.824;2022-07-21T11:25:00;56.53;50.66;68.04;;
60503;Laerm;51448;51.660;5.824;2022-07-21T11:27:32;54.01;49.54;64.35;;
60503;Laerm;51448;51.660;5.824;2022-07-21T11:30:05;56.47;51.38;68.17;;
60503;Laerm;51448;51.660;5.824;2022-07-21T11:32:34;53.44;47.05;63.60;;
60503;Laerm;51448;51.660;5.824;2022-07-21T11:35:07;55.19;46.72;72.78;;
60503;Laerm;51448;51.660;5.824;2022-07-21T11:37:42;54.51;48.65;66.07;;
60503;Laerm;51448;51.660;5.824;2022-07-21T11:40:17;54.61;47.86;64.46;;
60503;Laerm;51448;51.660;5.824;2022-07-21T11:42:51;59.98;50.64;72.77;;
60503;Laerm;51448;51.660;5.824;2022-07-21T11:45:24;58.40;53.25;68.52;;
60503;Laerm;51448;51.660;5.824;2022-07-21T11:47:55;59.41;54.89;69.24;;
60503;Laerm;51448;51.660;5.824;2022-07-21T11:50:23;58.12;54.18;68.09;;
60503;Laerm;51448;51.660;5.824;2022-07-21T11:52:50;55.60;50.93;65.22;;
60503;Laerm;51448;51.660;5.824;2022-07-21T11:55:18;56.56;51.03;65.97;;
60503;Laerm;51448;51.660;5.824;2022-07-21T11:57:46;54.73;48.83;64.24;;
60503;Laerm;51448;51.660;5.824;2022-07-21T12:00:15;55.01;49.28;71.11;;
60503;Laerm;51448;51.660;5.824;2022-07-21T12:02:48;54.42;49.66;67.08;;
60503;Laerm;51448;51.660;5.824;2022-07-21T12:05:17;53.02;48.54;62.09;;
60503;Laerm;51448;51.660;5.824;2022-07-21T12:07:49;53.52;47.71;64.46;;
60503;Laerm;51448;51.660;5.824;2022-07-21T12:10:28;52.60;46.57;65.81;;
60503;Laerm;51448;51.660;5.824;2022-07-21T12:13:03;54.86;47.37;69.04;;
60503;Laerm;51448;51.660;5.824;2022-07-21T12:15:34;53.08;46.00;72.91;;
60503;Laerm;51448;51.660;5.824;2022-07-21T12:18:07;50.89;43.45;66.07;;
60503;Laerm;51448;51.660;5.824;2022-07-21T12:20:40;51.33;42.14;63.82;;
60503;Laerm;51448;51.660;5.824;2022-07-21T12:23:27;54.74;40.65;69.25;;
60503;Laerm;51448;51.660;5.824;2022-07-21T12:25:59;49.73;38.55;63.79;;
60503;Laerm;51448;51.660;5.824;2022-07-21T12:28:45;48.63;38.41;65.10;;
60503;Laerm;51448;51.660;5.824;2022-07-21T12:31:17;52.35;39.42;69.03;;
60503;Laerm;51448;51.660;5.824;2022-07-21T12:33:51;53.53;44.46;67.08;;
60503;Laerm;51448;51.660;5.824;2022-07-21T12:36:41;48.75;40.69;70.05;;
60503;Laerm;51448;51.660;5.824;2022-07-21T12:39:20;50.77;36.52;66.08;;
60503;Laerm;51448;51.660;5.824;2022-07-21T12:42:09;57.68;35.84;73.77;;
60503;Laerm;51448;51.660;5.824;2022-07-21T12:44:38;47.47;36.62;58.98;;
60503;Laerm;51448;51.660;5.824;2022-07-21T12:47:20;47.99;37.62;61.07;;
60503;Laerm;51448;51.660;5.824;2022-07-21T12:50:13;48.85;39.11;61.21;;
60503;Laerm;51448;51.660;5.824;2022-07-21T12:52:49;50.55;40.74;63.03;;
60503;Laerm;51448;51.660;5.824;2022-07-21T12:55:17;49.42;37.34;60.10;;
60503;Laerm;51448;51.660;5.824;2022-07-21T12:57:44;45.99;36.96;59.74;;
60503;Laerm;51448;51.660;5.824;2022-07-21T13:00:12;50.04;39.35;62.52;;
60503;Laerm;51448;51.660;5.824;2022-07-21T13:02:54;48.30;40.25;62.14;;
60503;Laerm;51448;51.660;5.824;2022-07-21T13:05:24;48.74;41.23;61.22;;
60503;Laerm;51448;51.660;5.824;2022-07-21T13:07:54;48.55;40.78;59.95;;
60503;Laerm;51448;51.660;5.824;2022-07-21T13:10:22;52.88;39.68;63.75;;
60503;Laerm;51448;51.660;5.824;2022-07-21T13:12:49;49.69;40.18;69.36;;
60503;Laerm;51448;51.660;5.824;2022-07-21T13:15:17;51.14;40.20;69.83;;
60503;Laerm;51448;51.660;5.824;2022-07-21T13:17:45;46.61;39.41;57.22;;
60503;Laerm;51448;51.660;5.824;2022-07-21T13:20:13;50.45;40.36;63.15;;
60503;Laerm;51448;51.660;5.824;2022-07-21T13:22:41;49.34;39.84;62.63;;
60503;Laerm;51448;51.660;5.824;2022-07-21T13:25:10;48.73;39.02;66.02;;
60503;Laerm;51448;51.660;5.824;2022-07-21T13:27:38;47.84;39.85;59.21;;
60503;Laerm;51448;51.660;5.824;2022-07-21T13:30:10;48.84;41.96;63.10;;
60503;Laerm;51448;51.660;5.824;2022-07-21T13:32:37;51.60;43.03;59.23;;
60503;Laerm;51448;51.660;5.824;2022-07-21T13:35:06;48.45;40.09;60.11;;
60503;Laerm;51448;51.660;5.824;2022-07-21T13:37:55;48.87;39.77;64.36;;
60503;Laerm;51448;51.660;5.824;2022-07-21T13:40:26;50.75;42.43;67.68;;
60503;Laerm;51448;51.660;5.824;2022-07-21T13:43:14;49.07;39.46;64.18;;
60503;Laerm;51448;51.660;5.824;2022-07-21T13:46:04;48.45;39.06;60.24;;
60503;Laerm;51448;51.660;5.824;2022-07-21T13:48:32;46.42;38.51;59.17;;
60503;Laerm;51448;51.660;5.824;2022-07-21T13:51:07;47.83;37.86;59.49;;
60503;Laerm;51448;51.660;5.824;2022-07-21T13:53:36;49.48;39.06;61.33;;
60503;Laerm;51448;51.660;5.824;2022-07-21T13:56:04;48.37;38.21;61.94;;
60503;Laerm;51448;51.660;5.824;2022-07-21T13:58:32;49.73;37.58;58.54;;
60503;Laerm;51448;51.660;5.824;2022-07-21T14:01:00;49.35;40.83;64.33;;
60503;Laerm;51448;51.660;5.824;2022-07-21T14:03:28;54.27;42.29;70.44;;
60503;Laerm;51448;51.660;5.824;2022-07-21T14:05:55;53.10;45.00;71.02;;
60503;Laerm;51448;51.660;5.824;2022-07-21T14:08:23;52.06;44.54;67.42;;
60503;Laerm;51448;51.660;5.824;2022-07-21T14:10:50;52.64;48.13;60.20;;
60503;Laerm;51448;51.660;5.824;2022-07-21T14:13:18;52.39;44.83;62.19;;
60503;Laerm;51448;51.660;5.824;2022-07-21T14:15:46;53.16;47.16;60.75;;
60503;Laerm;51448;51.660;5.824;2022-07-21T14:18:14;53.13;46.61;62.56;;